Time;durP1;ratioP1;P1;durP2;ratioP2;P2;SDS_P1;SDS_P2;PMS_P1;PMS_P2;Temp;Humidity;BMP_temperature;BMP_pressure;BME280_temperature;BME280_humidity;BME280_pressure;Samples;Min_cycle;Max_cycle;Signal;HPM_P1;HPM_P2
2021/12/19 00:02:35;;;;;;;7.05;3.95;;;;;;;0.40;54.21;94387.56;4956211;28;20424;-77
2021/12/19 00:10:22;;;;;;;4.88;3.55;;;;;;;-0.14;54.87;94344.50;4956418;28;20038;-76
2021/12/19 00:12:48;;;;;;;9.95;4.30;;;;;;;0.29;54.63;94376.16;4937824;28;20042;-76
2021/12/19 00:15:13;;;;;;;9.40;5.30;;;;;;;0.25;54.62;94375.00;4959082;28;20050;-76
2021/12/19 00:17:39;;;;;;;5.50;3.80;;;;;;;0.06;54.55;94349.28;4958885;28;20081;-76
2021/12/19 00:20:05;;;;;;;7.45;4.15;;;;;;;0.36;54.08;94363.69;4955014;28;20406;-76
2021/12/19 00:22:32;;;;;;;4.60;3.65;;;;;;;0.10;54.11;94366.91;4963428;28;20219;-76
2021/12/19 00:24:57;;;;;;;8.25;3.97;;;;;;;0.04;54.53;94361.81;4955647;28;20540;-75
2021/12/19 00:27:23;;;;;;;5.32;4.00;;;;;;;0.02;54.48;94348.16;4958239;28;20055;-76
2021/12/19 00:29:48;;;;;;;5.57;4.28;;;;;;;-0.08;54.53;94331.28;4958562;28;20074;-76
2021/12/19 00:32:13;;;;;;;6.15;2.92;;;;;;;-0.20;54.57;94325.31;4959477;28;20342;-76
2021/12/19 00:34:39;;;;;;;10.48;5.03;;;;;;;-0.01;55.19;94367.75;4957683;28;20685;-76
2021/12/19 00:37:04;;;;;;;5.65;4.03;;;;;;;-0.07;55.24;94356.41;4956883;28;20113;-76
2021/12/19 00:39:30;;;;;;;10.50;4.70;;;;;;;-0.29;55.60;94331.94;4958315;28;20053;-76
2021/12/19 00:41:55;;;;;;;6.32;4.35;;;;;;;0.19;55.28;94369.94;4959078;28;20117;-76
2021/12/19 00:44:25;;;;;;;7.20;4.10;;;;;;;-0.48;54.83;94278.25;4959547;28;20179;-75
2021/12/19 00:47:03;;;;;;;8.10;4.68;;;;;;;-0.01;55.21;94354.69;4956657;28;20069;-76
2021/12/19 00:49:30;;;;;;;7.85;4.72;;;;;;;0.18;55.08;94363.13;4964041;28;20014;-75
2021/12/19 00:51:55;;;;;;;7.32;5.20;;;;;;;0.27;54.63;94357.25;4962164;28;20402;-76
2021/12/19 00:54:21;;;;;;;10.18;5.05;;;;;;;0.35;54.27;94359.47;4965022;28;20037;-76
2021/12/19 00:56:48;;;;;;;11.80;5.43;;;;;;;0.53;53.92;94363.72;4963242;28;20051;-76
2021/12/19 00:59:15;;;;;;;9.07;5.70;;;;;;;0.51;53.57;94336.97;4962975;28;20130;-75
2021/12/19 01:01:40;;;;;;;4.43;3.95;;;;;;;0.50;53.64;94345.84;4963621;28;20119;-76
2021/12/19 01:04:10;;;;;;;5.72;3.88;;;;;;;0.28;53.78;94326.66;4962375;28;20485;-75
2021/12/19 01:06:39;;;;;;;6.05;3.63;;;;;;;0.15;53.78;94312.06;4958576;28;20045;-75
2021/12/19 01:09:06;;;;;;;4.65;3.70;;;;;;;-0.13;54.79;94331.19;4954696;28;20054;-76
2021/12/19 01:11:33;;;;;;;2.85;2.63;;;;;;;-0.26;55.54;94336.69;4963108;28;20039;-76
2021/12/19 01:13:58;;;;;;;4.00;3.53;;;;;;;-0.60;56.35;94314.06;4962805;28;20070;-75
2021/12/19 01:16:24;;;;;;;6.63;4.03;;;;;;;-0.28;56.19;94317.81;4965141;28;20486;-76
2021/12/19 01:18:50;;;;;;;6.50;3.97;;;;;;;-0.10;56.13;94330.72;4960227;28;20052;-75
2021/12/19 01:21:16;;;;;;;5.57;4.47;;;;;;;-0.63;57.15;94319.78;4961645;28;20026;-75
2021/12/19 01:23:41;;;;;;;7.65;5.07;;;;;;;-0.61;57.34;94334.19;4957737;28;20074;-76
2021/12/19 01:26:07;;;;;;;7.68;4.30;;;;;;;-0.64;57.63;94333.84;4960446;28;20035;-75
2021/12/19 01:28:33;;;;;;;8.82;4.28;;;;;;;-0.53;57.50;94330.41;4957142;28;20027;-74
2021/12/19 01:30:58;;;;;;;5.28;4.05;;;;;;;-0.68;57.78;94332.72;4961491;28;20405;-76
2021/12/19 01:33:24;;;;;;;10.40;4.18;;;;;;;-0.86;57.93;94312.75;4942110;28;20133;-76
2021/12/19 01:35:49;;;;;;;8.20;4.85;;;;;;;-1.26;58.47;94263.09;4961111;28;20648;-75
2021/12/19 01:38:15;;;;;;;4.10;3.75;;;;;;;-0.87;58.76;94307.78;4961338;28;20405;-76
2021/12/19 01:40:40;;;;;;;4.38;3.88;;;;;;;-1.16;58.94;94284.19;4941318;28;20053;-75
2021/12/19 01:43:06;;;;;;;5.85;4.10;;;;;;;-1.08;58.75;94298.72;4961231;28;20040;-75
2021/12/19 01:45:38;;;;;;;4.50;3.95;;;;;;;-1.13;58.95;94278.53;4959145;28;20109;-74
2021/12/19 01:48:07;;;;;;;3.40;3.10;;;;;;;-0.95;58.91;94307.09;4941866;28;20181;-76
2021/12/19 01:50:33;;;;;;;5.53;3.88;;;;;;;-1.04;58.89;94285.00;4942981;28;20045;-74
2021/12/19 01:53:01;;;;;;;4.13;3.75;;;;;;;-0.92;59.07;94302.47;4962044;28;20042;-75
2021/12/19 01:55:27;;;;;;;3.58;3.28;;;;;;;-0.97;59.03;94303.91;4963441;28;20069;-75
2021/12/19 01:57:53;;;;;;;6.03;4.82;;;;;;;-1.10;59.29;94312.00;4961205;28;20043;-76
2021/12/19 02:00:29;;;;;;;6.55;4.38;;;;;;;-1.02;59.37;94285.53;4961803;28;20510;-75
2021/12/19 02:02:56;;;;;;;5.57;4.22;;;;;;;-0.98;59.51;94291.13;4960882;28;20045;-76
2021/12/19 02:05:23;;;;;;;7.00;4.47;;;;;;;-1.20;59.21;94251.75;4943149;28;20416;-76
2021/12/19 02:07:50;;;;;;;8.35;4.07;;;;;;;-0.99;59.13;94256.38;4958142;28;20039;-76
2021/12/19 02:10:25;;;;;;;8.52;4.95;;;;;;;-0.69;58.42;94284.13;4958793;28;20497;-76
2021/12/19 02:12:52;;;;;;;6.78;4.80;;;;;;;-0.89;58.07;94262.81;4956709;28;20042;-76
2021/12/19 02:15:21;;;;;;;5.80;4.22;;;;;;;-1.07;59.25;94277.59;4960305;28;20033;-76
2021/12/19 02:17:49;;;;;;;4.20;3.80;;;;;;;-1.35;59.42;94254.03;4956633;28;20605;-76
2021/12/19 02:20:16;;;;;;;5.75;4.43;;;;;;;-1.07;59.26;94272.38;4939788;28;20506;-77
2021/12/19 02:22:42;;;;;;;5.53;4.10;;;;;;;-1.14;59.63;94258.66;4940687;28;20453;-75
2021/12/19 02:25:08;;;;;;;5.13;3.63;;;;;;;-1.05;59.49;94280.78;4957741;28;20022;-76
2021/12/19 02:27:34;;;;;;;4.15;3.72;;;;;;;-0.92;59.50;94279.72;4956488;28;20414;-77
2021/12/19 02:30:00;;;;;;;6.57;4.15;;;;;;;-1.06;59.56;94258.31;4958585;28;20039;-76
2021/12/19 02:32:28;;;;;;;6.72;4.18;;;;;;;-0.90;59.65;94266.44;4957680;28;20086;-75
2021/12/19 02:34:57;;;;;;;6.95;4.38;;;;;;;-1.07;60.10;94264.53;4936654;28;20494;-76
2021/12/19 02:48:13;;;;;;;5.75;4.22;;;;;;;-0.71;59.52;94270.50;4959594;28;20042;-75
2021/12/19 02:50:50;;;;;;;8.02;4.78;;;;;;;-0.75;59.80;94270.16;4957315;28;20043;-76
2021/12/19 02:53:26;;;;;;;6.32;4.28;;;;;;;-0.89;59.81;94250.56;4955242;28;20161;-75
2021/12/19 02:55:51;;;;;;;;;;;;;;;-0.90;60.11;94271.66;4958255;28;20026;-76
2021/12/19 02:58:17;;;;;;;6.20;4.30;;;;;;;-0.99;60.22;94248.53;4958088;28;20372;-76
2021/12/19 03:00:43;;;;;;;7.40;4.00;;;;;;;-0.90;60.11;94250.78;4957101;28;20039;-75
2021/12/19 03:03:09;;;;;;;5.07;4.57;;;;;;;-1.18;59.69;94221.00;4958099;28;20575;-75
2021/12/19 03:05:34;;;;;;;7.55;4.18;;;;;;;-1.18;60.16;94252.31;4955707;28;20054;-75
2021/12/19 03:08:02;;;;;;;12.65;6.80;;;;;;;-1.41;60.81;94249.75;4955337;28;20038;-76
2021/12/19 03:13:37;;;;;;;8.18;6.00;;;;;;;-1.46;60.94;94252.25;4955834;28;20050;-76
2021/12/19 03:18:47;;;;;;;5.70;5.18;;;;;;;-1.46;60.88;94247.78;4953419;28;20045;-76
2021/12/19 03:21:16;;;;;;;7.40;4.60;;;;;;;-1.46;59.97;94228.75;4956447;28;20039;-76
2021/12/19 03:23:41;;;;;;;7.85;4.55;;;;;;;-1.31;59.66;94228.28;4939429;28;20387;-75
2021/12/19 03:26:07;;;;;;;4.30;3.28;;;;;;;-1.15;59.17;94248.44;4954336;28;20098;-76
2021/12/19 03:28:32;;;;;;;5.03;4.22;;;;;;;-1.09;59.33;94255.38;4954951;28;20033;-75
2021/12/19 03:30:58;;;;;;;6.13;4.72;;;;;;;-0.96;58.57;94249.88;4954466;28;20076;-76
2021/12/19 03:33:23;;;;;;;5.45;4.95;;;;;;;-0.77;58.08;94251.31;4957249;28;20039;-75
2021/12/19 03:35:49;;;;;;;6.93;3.53;;;;;;;-0.80;58.11;94240.53;4961215;28;20438;-76
2021/12/19 03:38:16;;;;;;;6.80;4.78;;;;;;;-0.93;57.79;94206.88;4960222;28;20593;-76
2021/12/19 03:40:50;;;;;;;6.93;4.45;;;;;;;-1.00;57.70;94213.00;4960196;28;20047;-76
2021/12/19 03:43:19;;;;;;;8.73;4.97;;;;;;;-1.32;58.47;94201.41;4960447;28;20109;-75
2021/12/19 03:45:46;;;;;;;5.28;3.70;;;;;;;-1.02;58.16;94222.09;4942856;28;20134;-75
2021/12/19 03:48:15;;;;;;;6.32;4.13;;;;;;;-0.82;58.06;94237.34;4960634;28;20133;-76
2021/12/19 03:50:44;;;;;;;4.95;3.80;;;;;;;-0.74;57.01;94229.16;4958172;28;20078;-76
2021/12/19 03:53:11;;;;;;;5.07;3.20;;;;;;;-0.97;56.71;94220.38;4957676;28;20134;-76
2021/12/19 03:55:37;;;;;;;5.65;5.00;;;;;;;-1.01;56.70;94226.28;4959895;28;20038;-75
2021/12/19 03:58:03;;;;;;;5.82;4.55;;;;;;;-0.84;57.04;94219.31;4958300;28;20027;-75
2021/12/19 04:00:31;;;;;;;8.07;5.13;;;;;;;-0.96;56.67;94232.41;4961566;28;20133;-76
2021/12/19 04:03:00;;;;;;;5.32;4.53;;;;;;;-1.07;57.02;94220.16;4956459;28;20046;-76
2021/12/19 04:05:27;;;;;;;3.75;3.38;;;;;;;-1.27;56.97;94196.28;4958821;28;20042;-75
2021/12/19 04:07:53;;;;;;;8.48;4.05;;;;;;;-0.91;56.52;94218.66;4960258;28;20466;-76
2021/12/19 04:10:21;;;;;;;4.90;3.17;;;;;;;-0.96;56.75;94208.91;4959998;28;20027;-76
2021/12/19 04:12:47;;;;;;;4.18;3.47;;;;;;;-1.03;56.13;94210.88;4957814;28;20532;-76
2021/12/19 04:15:13;;;;;;;6.05;3.58;;;;;;;-1.29;56.23;94172.22;4960551;28;20043;-75
2021/12/19 04:17:38;;;;;;;9.30;3.58;;;;;;;-1.08;56.00;94194.31;4959347;28;20856;-76
2021/12/19 04:20:05;;;;;;;3.67;2.78;;;;;;;-1.04;56.19;94200.66;4956658;28;20050;-76
2021/12/19 04:22:31;;;;;;;6.90;4.63;;;;;;;-1.23;56.04;94173.13;4960932;28;20027;-76
2021/12/19 04:24:56;;;;;;;5.72;3.40;;;;;;;-1.31;56.12;94179.47;4957997;28;20058;-76
2021/12/19 04:27:22;;;;;;;7.50;3.58;;;;;;;-1.23;56.58;94186.97;4960340;28;20039;-77
2021/12/19 04:29:49;;;;;;;3.17;2.88;;;;;;;-1.15;56.27;94191.81;4942823;28;20041;-75
2021/12/19 04:32:17;;;;;;;5.20;3.63;;;;;;;-0.93;56.55;94199.03;4957107;28;20034;-76
2021/12/19 04:34:42;;;;;;;4.65;4.20;;;;;;;-0.65;55.88;94197.22;4962869;28;20022;-75
2021/12/19 04:37:33;;;;;;;5.72;4.32;;;;;;;-0.74;55.15;94161.25;4957848;28;20038;-76
2021/12/19 04:40:01;;;;;;;7.50;4.95;;;;;;;-0.67;55.13;94161.91;4959139;28;20093;-76
2021/12/19 04:53:52;;;;;;;5.22;3.70;;;;;;;-0.97;56.47;94151.69;4956521;28;20654;-76
2021/12/19 04:56:25;;;;;;;7.68;5.15;;;;;;;-0.97;56.76;94142.03;4960243;28;20234;-75
2021/12/19 04:59:09;;;;;;;4.63;3.42;;;;;;;-1.02;56.77;94139.34;4956711;28;20809;-76
2021/12/19 05:02:06;;;;;;;4.57;4.10;;;;;;;-0.75;56.91;94177.94;4950706;28;20176;-76
2021/12/19 05:15:37;;;;;;;7.88;3.88;;;;;;;-0.67;56.92;94178.34;4957245;28;20048;-76
2021/12/19 05:18:06;;;;;;;5.47;4.97;;;;;;;-0.59;56.76;94183.22;4956825;28;20399;-76
2021/12/19 05:20:34;;;;;;;6.75;3.50;;;;;;;-0.80;56.86;94173.44;4958407;28;20034;-76
2021/12/19 05:23:08;;;;;;;7.00;3.90;;;;;;;-1.06;57.17;94159.09;4957848;28;20390;-76
2021/12/19 05:25:33;;;;;;;3.70;3.33;;;;;;;-0.96;57.91;94180.19;4960047;28;20038;-76
2021/12/19 05:28:00;;;;;;;4.57;3.78;;;;;;;-0.91;57.86;94181.28;4959192;28;20035;-76
2021/12/19 05:30:26;;;;;;;7.85;5.05;;;;;;;-1.08;58.21;94150.72;4957129;28;20137;-76
2021/12/19 05:32:53;;;;;;;5.68;3.67;;;;;;;-1.12;57.79;94154.03;4958956;28;20077;-76
2021/12/19 05:35:28;;;;;;;6.97;4.63;;;;;;;-0.90;58.24;94188.13;4958246;28;20042;-76
2021/12/19 05:46:06;;;;;;;6.18;3.50;;;;;;;-0.71;57.54;94184.28;4956132;28;20042;-75
2021/12/19 05:48:32;;;;;;;6.80;4.32;;;;;;;-0.76;57.24;94163.31;4958707;28;20034;-75
2021/12/19 05:50:57;;;;;;;9.00;5.53;;;;;;;-0.59;57.18;94174.59;4957801;28;20034;-76
2021/12/19 05:53:23;;;;;;;7.28;3.97;;;;;;;-0.64;56.89;94164.06;4956230;28;20035;-75
2021/12/19 05:55:48;;;;;;;9.88;4.05;;;;;;;-0.62;56.55;94144.50;4957255;28;20058;-76
2021/12/19 05:58:14;;;;;;;6.38;4.25;;;;;;;-0.80;56.97;94138.69;4957475;28;20035;-76
2021/12/19 06:00:39;;;;;;;8.82;4.32;;;;;;;-0.79;56.82;94148.09;4959428;28;20043;-76
2021/12/19 06:03:06;;;;;;;8.15;3.78;;;;;;;-0.54;56.88;94169.47;4957389;28;20047;-76
2021/12/19 06:05:31;;;;;;;7.03;4.13;;;;;;;-0.78;56.92;94139.25;4959152;28;20494;-76
2021/12/19 06:07:57;;;;;;;8.20;4.65;;;;;;;-0.67;56.74;94135.78;4957613;28;20042;-77
2021/12/19 06:10:22;;;;;;;4.95;3.60;;;;;;;-0.75;56.73;94107.44;4957752;28;20122;-75
2021/12/19 06:12:49;;;;;;;9.73;4.38;;;;;;;-0.40;56.19;94156.88;4956554;28;20047;-76
2021/12/19 06:15:15;;;;;;;10.38;5.40;;;;;;;-0.49;56.48;94138.19;4956686;28;20049;-76
2021/12/19 06:17:44;;;;;;;4.88;4.13;;;;;;;-0.86;56.87;94116.09;4958802;28;20039;-76
2021/12/19 06:20:10;;;;;;;7.55;4.25;;;;;;;-0.94;57.51;94140.78;4956134;28;20041;-75
2021/12/19 06:22:36;;;;;;;8.40;4.85;;;;;;;-1.04;57.82;94114.50;4958030;28;20037;-75
2021/12/19 06:25:03;;;;;;;8.07;4.65;;;;;;;-0.96;57.84;94133.19;4957031;28;20453;-76
2021/12/19 06:27:29;;;;;;;8.13;4.43;;;;;;;-0.99;57.66;94141.50;4958619;28;20035;-75
2021/12/19 06:29:54;;;;;;;7.28;4.47;;;;;;;-0.97;57.83;94131.59;4957443;28;20054;-75
2021/12/19 06:32:19;;;;;;;11.75;4.38;;;;;;;-0.97;57.07;94118.53;4943111;28;20043;-76
2021/12/19 06:34:45;;;;;;;4.72;3.97;;;;;;;-0.87;57.33;94133.59;4957067;28;20034;-75
2021/12/19 06:37:11;;;;;;;6.55;4.50;;;;;;;-0.75;57.04;94134.34;4958345;28;20022;-75
2021/12/19 06:39:38;;;;;;;5.82;4.35;;;;;;;-0.75;56.51;94107.44;4956170;28;20150;-76
2021/12/19 06:42:05;;;;;;;5.55;4.57;;;;;;;-0.89;56.20;94072.19;4957356;28;20039;-76
2021/12/19 06:44:32;;;;;;;8.27;4.57;;;;;;;-0.72;56.04;94101.72;4956244;28;20065;-76
2021/12/19 06:46:58;;;;;;;6.82;4.65;;;;;;;-0.93;56.39;94116.28;4957802;28;20054;-75
2021/12/19 06:49:23;;;;;;;8.25;4.32;;;;;;;-1.14;56.66;94089.00;4954695;28;20078;-75
2021/12/19 06:51:48;;;;;;;9.05;5.93;;;;;;;-1.11;57.35;94106.81;4956705;28;20047;-76
2021/12/19 06:54:14;;;;;;;6.68;4.93;;;;;;;-1.24;57.50;94088.81;4957680;28;20468;-77
2021/12/19 06:56:39;;;;;;;6.55;3.92;;;;;;;-1.11;57.52;94117.25;4956938;28;20573;-76
2021/12/19 06:59:05;;;;;;;7.88;4.55;;;;;;;-1.28;57.75;94097.34;4955572;28;20035;-77
2021/12/19 07:01:30;;;;;;;7.50;4.07;;;;;;;-1.19;57.43;94081.09;4955612;28;20026;-75
2021/12/19 07:03:56;;;;;;;5.97;4.30;;;;;;;-1.09;57.74;94120.44;4954965;28;20066;-76
2021/12/19 07:06:21;;;;;;;6.10;4.25;;;;;;;-1.43;58.09;94087.41;4955927;28;20035;-76
2021/12/19 07:08:47;;;;;;;5.03;3.58;;;;;;;-1.44;58.06;94068.34;4956153;28;20081;-76
2021/12/19 07:11:13;;;;;;;5.53;3.85;;;;;;;-1.18;57.78;94111.38;4960979;28;20671;-76
2021/12/19 07:13:38;;;;;;;8.00;5.07;;;;;;;-1.03;57.91;94116.88;4959324;28;20027;-76
2021/12/19 07:16:06;;;;;;;8.18;4.97;;;;;;;-1.05;57.41;94086.81;4960974;28;20147;-76
2021/12/19 07:18:31;;;;;;;9.00;4.72;;;;;;;-1.06;57.14;94072.16;4958185;28;20038;-76
2021/12/19 07:20:57;;;;;;;6.82;4.85;;;;;;;-0.72;56.86;94112.97;4961589;28;20370;-76
2021/12/19 07:23:22;;;;;;;8.27;4.95;;;;;;;-0.84;57.03;94101.81;4960619;28;20039;-75
2021/12/19 07:25:48;;;;;;;12.90;4.93;;;;;;;-0.70;57.00;94097.06;4960032;28;20034;-76
2021/12/19 07:28:14;;;;;;;6.72;4.30;;;;;;;-0.72;56.66;94079.00;4959718;28;20026;-75
2021/12/19 07:30:40;;;;;;;7.18;4.60;;;;;;;-0.57;56.38;94081.09;4958522;28;20043;-74
2021/12/19 07:33:07;;;;;;;6.47;4.72;;;;;;;-0.60;55.80;94094.63;4943856;28;20051;-77
2021/12/19 07:35:36;;;;;;;7.80;4.53;;;;;;;-0.48;56.15;94112.84;4959436;28;20073;-75
2021/12/19 07:38:06;;;;;;;5.70;4.78;;;;;;;-0.73;56.36;94087.91;4960838;28;20069;-75
2021/12/19 07:40:36;;;;;;;9.20;4.70;;;;;;;-0.74;56.80;94083.69;4959964;28;20955;-76
2021/12/19 07:43:10;;;;;;;10.45;5.65;;;;;;;-0.56;56.51;94106.19;4960109;28;20039;-76
2021/12/19 07:45:37;;;;;;;6.63;5.15;;;;;;;-0.78;56.01;94063.50;4958139;28;20057;-75
2021/12/19 07:48:03;;;;;;;6.80;5.20;;;;;;;-0.57;56.08;94104.59;4957728;28;20038;-76
2021/12/19 07:50:30;;;;;;;4.95;3.80;;;;;;;-0.64;56.03;94111.81;4958281;28;20050;-76
2021/12/19 07:52:56;;;;;;;8.27;4.45;;;;;;;-0.69;56.48;94107.28;4958746;28;20026;-75
2021/12/19 07:55:24;;;;;;;8.45;4.75;;;;;;;-0.56;56.24;94098.34;4959415;28;20042;-75
2021/12/19 07:57:50;;;;;;;9.80;5.97;;;;;;;-0.56;55.93;94100.97;4957891;28;20042;-76
2021/12/19 08:00:16;;;;;;;6.10;3.95;;;;;;;-0.44;55.87;94108.75;4957747;28;20035;-76
2021/12/19 08:02:45;;;;;;;5.97;4.50;;;;;;;-0.64;55.85;94077.84;4958518;28;20510;-76
2021/12/19 08:05:11;;;;;;;4.95;4.15;;;;;;;-0.64;56.23;94099.53;4958117;28;20437;-76
2021/12/19 08:07:39;;;;;;;6.82;5.47;;;;;;;-0.61;56.36;94085.19;4957983;28;20026;-76
2021/12/19 08:12:33;;;;;;;9.52;6.47;;;;;;;-0.62;56.70;94068.72;4957051;28;20045;-76
2021/12/19 08:14:59;;;;;;;15.80;7.47;;;;;;;-0.64;56.17;94054.34;4958143;28;20051;-76
2021/12/19 08:17:25;;;;;;;12.65;6.43;;;;;;;-0.65;56.63;94024.03;4961821;28;20501;-76
2021/12/19 08:19:50;;;;;;;10.80;5.57;;;;;;;-0.51;55.91;94014.81;4954632;28;20080;-75
2021/12/19 08:22:16;;;;;;;9.63;5.45;;;;;;;-0.40;54.75;94011.34;4958735;28;20402;-76
2021/12/19 08:24:42;;;;;;;15.38;7.65;;;;;;;-0.70;54.82;93969.88;4958980;28;20035;-76
2021/12/19 08:27:08;;;;;;;21.30;11.93;;;;;;;-0.43;55.13;94006.56;4958241;28;20039;-75
2021/12/19 08:29:33;;;;;;;11.73;7.15;;;;;;;-0.41;54.96;94004.53;4941528;28;20033;-76
2021/12/19 08:31:59;;;;;;;16.40;9.18;;;;;;;-0.44;55.14;93994.56;4956287;28;20039;-76
2021/12/19 08:34:24;;;;;;;16.70;9.38;;;;;;;-0.29;55.13;94005.22;4958246;28;20031;-75
2021/12/19 08:36:50;;;;;;;10.35;7.65;;;;;;;-0.10;54.75;94014.38;4957365;28;20125;-76
2021/12/19 08:39:15;;;;;;;15.27;10.10;;;;;;;-0.05;54.67;93995.34;4959411;28;20041;-76
2021/12/19 08:41:41;;;;;;;11.13;6.65;;;;;;;0.19;53.97;94029.88;4952856;28;20439;-76
2021/12/19 08:44:07;;;;;;;13.88;6.18;;;;;;;0.20;54.18;94029.63;4953124;28;20031;-75
2021/12/19 08:46:35;;;;;;;8.25;5.72;;;;;;;0.24;54.12;94027.34;4936590;28;20375;-75
2021/12/19 08:49:04;;;;;;;8.65;4.90;;;;;;;0.23;53.57;94007.44;4933691;28;20051;-75
2021/12/19 08:51:31;;;;;;;6.88;4.95;;;;;;;0.27;54.16;94005.91;4949744;28;20039;-76
2021/12/19 08:53:57;;;;;;;8.55;4.97;;;;;;;0.48;53.39;94030.47;4933882;28;20051;-76
2021/12/19 08:56:22;;;;;;;9.00;5.80;;;;;;;0.32;53.40;94005.97;4934688;28;20097;-75
2021/12/19 08:59:08;;;;;;;10.63;4.82;;;;;;;0.32;53.51;93993.69;4936071;28;20893;-75
2021/12/19 09:01:33;;;;;;;4.07;3.67;;;;;;;0.63;53.21;94013.13;4936043;28;20427;-76
2021/12/19 09:06:52;;;;;;;6.63;4.53;;;;;;;0.80;52.61;94023.50;4953926;28;20396;-76
2021/12/19 09:10:12;;;;;;;7.43;4.82;;;;;;;0.62;53.00;94019.41;4949616;28;20035;-76
2021/12/19 09:12:38;;;;;;;5.45;4.40;;;;;;;0.44;53.35;93996.19;4935046;28;20122;-77
2021/12/19 09:15:05;;;;;;;6.70;4.30;;;;;;;0.57;53.52;94011.50;4938716;28;20049;-76
2021/12/19 09:17:50;;;;;;;7.72;5.63;;;;;;;0.74;53.67;94017.41;4954889;28;20067;-76
2021/12/19 09:20:15;;;;;;;13.15;6.22;;;;;;;0.65;54.12;94003.19;4951306;28;20325;-76
2021/12/19 09:22:52;;;;;;;10.05;5.45;;;;;;;0.56;54.14;94020.38;4940962;28;20394;-76
2021/12/19 09:28:07;;;;;;;10.15;5.38;;;;;;;0.39;54.56;93969.16;4898839;29;20052;-76
2021/12/19 09:30:35;;;;;;;6.97;5.07;;;;;;;0.72;54.42;93988.09;4900648;29;20047;-76
2021/12/19 09:33:00;;;;;;;7.53;5.45;;;;;;;0.67;53.93;93997.72;4901684;29;20115;-76
2021/12/19 09:35:26;;;;;;;11.25;7.30;;;;;;;0.64;54.20;93985.88;4880981;29;20075;-76
2021/12/19 09:37:51;;;;;;;7.22;5.40;;;;;;;0.07;53.98;93921.97;4894738;29;20055;-76
2021/12/19 09:40:21;;;;;;;11.02;5.60;;;;;;;0.56;54.48;93975.88;4931376;28;20047;-76
2021/12/19 09:42:50;;;;;;;8.77;5.72;;;;;;;0.55;54.34;93958.59;4930129;28;21249;-76
2021/12/19 09:45:17;;;;;;;8.13;5.32;;;;;;;0.74;54.39;93970.28;4951474;28;20111;-75
2021/12/19 09:48:03;;;;;;;7.00;5.18;;;;;;;0.47;54.45;93922.41;4944378;28;20037;-77
2021/12/19 09:50:30;;;;;;;8.02;5.82;;;;;;;0.59;54.24;93930.91;4955519;28;20038;-77
2021/12/19 09:52:56;;;;;;;10.73;5.40;;;;;;;0.80;54.60;93943.13;4920318;28;20033;-75
2021/12/19 09:55:22;;;;;;;14.00;6.45;;;;;;;0.99;54.49;93937.50;4954452;28;20045;-75
2021/12/19 09:57:53;;;;;;;8.57;5.15;;;;;;;0.66;54.07;93870.47;4952579;28;20691;-75
2021/12/19 10:00:19;;;;;;;11.60;6.55;;;;;;;1.05;54.56;93933.88;4954881;28;20030;-74
2021/12/19 10:02:46;;;;;;;9.23;5.90;;;;;;;0.95;54.63;93929.34;4954886;28;20508;-75
2021/12/19 10:05:30;;;;;;;9.90;5.63;;;;;;;0.94;54.50;93885.09;4955353;28;20452;-75
2021/12/19 10:08:03;;;;;;;14.43;6.35;;;;;;;1.10;54.71;93889.41;4953810;28;20037;-75
2021/12/19 10:10:42;;;;;;;8.52;5.30;;;;;;;1.22;54.18;93897.88;4952160;28;20034;-75
2021/12/19 10:13:07;;;;;;;9.02;6.22;;;;;;;1.19;53.95;93895.75;4950194;28;20050;-75
2021/12/19 10:15:35;;;;;;;9.75;5.10;;;;;;;1.25;54.01;93897.34;4952627;28;20038;-74
2021/12/19 10:18:12;;;;;;;22.73;13.85;;;;;;;1.44;54.49;93898.50;4949393;28;20067;-78
2021/12/19 10:20:47;;;;;;;12.10;8.02;;;;;;;1.42;53.97;93892.75;4952452;28;20050;-75
2021/12/19 10:23:22;;;;;;;10.63;6.60;;;;;;;1.20;54.45;93885.00;4953876;28;20582;-75
2021/12/19 10:26:06;;;;;;;7.47;4.63;;;;;;;0.83;54.94;93854.66;4951901;28;20049;-75
2021/12/19 10:28:32;;;;;;;10.68;6.15;;;;;;;1.18;54.80;93878.47;4951797;28;20018;-74
2021/12/19 10:31:00;;;;;;;9.38;5.65;;;;;;;1.20;55.07;93884.22;4935498;28;20556;-75
2021/12/19 10:33:32;;;;;;;7.88;4.65;;;;;;;1.11;54.83;93854.31;4935051;28;20046;-75
2021/12/19 10:36:01;;;;;;;7.85;5.65;;;;;;;1.15;54.87;93858.00;4931974;28;20129;-74
2021/12/19 10:38:39;;;;;;;8.55;6.15;;;;;;;1.29;54.88;93864.34;4952262;28;20053;-74
2021/12/19 10:41:11;;;;;;;9.02;5.28;;;;;;;1.30;55.02;93865.94;4953940;28;20046;-75
2021/12/19 10:44:04;;;;;;;8.77;4.88;;;;;;;1.26;55.17;93857.03;4953448;28;20031;-74
2021/12/19 10:46:32;;;;;;;9.45;5.82;;;;;;;1.34;55.01;93859.16;4959108;28;20029;-74
2021/12/19 10:49:00;;;;;;;12.35;7.25;;;;;;;1.33;54.99;93851.53;4950890;28;20038;-75
2021/12/19 10:51:26;;;;;;;9.43;6.93;;;;;;;1.20;54.71;93850.16;4954376;28;20077;-75
2021/12/19 10:54:00;;;;;;;7.18;4.95;;;;;;;1.02;55.08;93829.63;4957148;28;20390;-74
2021/12/19 10:56:34;;;;;;;9.43;6.72;;;;;;;1.19;55.03;93841.50;4951488;28;20525;-76
2021/12/19 10:59:00;;;;;;;7.77;6.10;;;;;;;1.12;55.46;93824.47;4955667;28;20186;-75
2021/12/19 11:01:34;;;;;;;15.48;7.18;;;;;;;1.27;55.30;93842.88;4958997;28;20826;-74
2021/12/19 11:04:09;;;;;;;15.23;10.40;;;;;;;1.14;55.33;93838.88;4953946;28;20140;-74
2021/12/19 11:06:41;;;;;;;16.10;11.40;;;;;;;1.05;55.57;93836.97;4953025;28;20584;-75
2021/12/19 11:09:20;;;;;;;13.13;8.70;;;;;;;1.00;55.63;93805.53;4935878;28;20297;-75
2021/12/19 11:11:54;;;;;;;13.48;9.43;;;;;;;0.99;56.07;93824.88;4954919;28;20042;-75
2021/12/19 11:14:31;;;;;;;14.23;7.95;;;;;;;0.93;55.27;93826.72;4954025;28;20038;-75
2021/12/19 11:17:03;;;;;;;14.10;8.65;;;;;;;0.73;55.31;93808.25;4954505;28;20046;-74
2021/12/19 11:19:30;;;;;;;11.48;7.80;;;;;;;0.63;55.80;93795.88;4952494;28;20118;-76
2021/12/19 11:21:56;;;;;;;12.23;8.75;;;;;;;0.89;55.62;93814.38;4955845;28;20131;-75
2021/12/19 11:24:23;;;;;;;8.70;5.85;;;;;;;0.91;54.95;93791.34;4955479;28;20516;-74
2021/12/19 11:26:52;;;;;;;11.93;7.13;;;;;;;1.08;55.03;93802.44;4955729;28;20045;-75
2021/12/19 11:29:18;;;;;;;9.18;8.20;;;;;;;1.12;54.60;93787.78;4953152;28;20057;-74
2021/12/19 11:31:47;;;;;;;11.98;7.25;;;;;;;1.18;54.41;93797.25;4934872;28;20018;-75
2021/12/19 11:34:20;;;;;;;15.07;7.95;;;;;;;1.17;54.17;93790.44;4956895;28;20240;-75
2021/12/19 11:37:00;;;;;;;9.52;7.38;;;;;;;1.00;54.29;93805.53;4953471;28;20624;-74
2021/12/19 11:39:31;;;;;;;11.10;7.95;;;;;;;0.87;54.71;93796.28;4954857;28;20081;-74
2021/12/19 11:42:10;;;;;;;10.02;7.63;;;;;;;0.57;55.33;93767.28;4934877;28;20604;-75
2021/12/19 11:47:51;;;;;;;9.38;6.28;;;;;;;0.55;56.31;93783.25;4954121;28;20050;-77
2021/12/19 11:50:27;;;;;;;13.73;7.90;;;;;;;0.58;55.94;93759.22;4956433;28;20049;-75
2021/12/19 11:52:59;;;;;;;9.05;8.15;;;;;;;0.74;56.23;93775.81;4949514;28;20090;-76
2021/12/19 11:55:26;;;;;;;8.75;6.18;;;;;;;0.81;55.72;93773.72;4955774;28;20038;-76
2021/12/19 11:58:27;;;;;;;13.43;6.45;;;;;;;0.91;55.60;93765.16;4934971;28;20042;-77
2021/12/19 12:00:58;;;;;;;8.65;6.95;;;;;;;0.82;56.14;93749.13;4948174;28;20545;-77
2021/12/19 12:03:46;;;;;;;11.88;8.32;;;;;;;1.01;55.64;93754.72;4951964;28;20151;-76
2021/12/19 12:06:17;;;;;;;10.60;7.50;;;;;;;1.10;55.48;93761.84;4956096;28;20031;-77
2021/12/19 12:09:13;;;;;;;9.70;6.45;;;;;;;1.16;55.82;93754.78;4948004;28;20417;-77
2021/12/19 12:12:05;;;;;;;17.45;9.55;;;;;;;1.34;55.36;93749.09;4956916;28;20035;-77
2021/12/19 12:14:35;;;;;;;11.52;6.72;;;;;;;1.40;54.78;93742.84;4950175;28;20101;-77
2021/12/19 12:17:07;;;;;;;9.73;6.57;;;;;;;1.55;54.57;93729.78;4952712;28;20133;-77
2021/12/19 12:19:39;;;;;;;14.07;6.43;;;;;;;1.24;54.58;93665.22;4949760;28;20046;-76
2021/12/19 12:22:44;;;;;;;13.50;8.27;;;;;;;1.57;54.19;93722.41;4954378;28;20546;-77
2021/12/19 12:25:08;;;;;;;13.35;7.72;;;;;;;1.52;54.15;93714.53;4953248;28;20047;-74
2021/12/19 12:28:04;;;;;;;9.63;5.90;;;;;;;1.46;54.30;93727.91;4949175;28;20043;-77
2021/12/19 12:30:29;;;;;;;;;;;;;;;1.29;55.21;93715.00;4932520;28;20058;-75
2021/12/19 12:32:58;;;;;;;9.38;7.22;;;;;;;1.35;54.79;93708.75;4956892;28;19918;-75
2021/12/19 12:35:25;;;;;;;7.63;4.82;;;;;;;1.13;55.36;93695.06;4937415;28;20442;-75
2021/12/19 12:37:53;;;;;;;8.52;5.72;;;;;;;0.97;55.91;93675.09;4953036;28;20042;-75
2021/12/19 12:40:30;;;;;;;9.10;5.47;;;;;;;0.85;56.45;93682.38;4952397;28;20061;-75
2021/12/19 12:42:57;;;;;;;14.13;6.25;;;;;;;0.90;56.91;93685.81;4929868;28;21136;-75
2021/12/19 12:45:24;;;;;;;11.13;7.28;;;;;;;0.79;57.36;93669.25;4960452;28;20078;-74
2021/12/19 12:47:49;;;;;;;12.68;8.07;;;;;;;0.93;57.06;93671.44;4971699;28;20046;-74